DETEZ EDHE-EDDH
Flight info
| Callsign | DETEZ |
|---|---|
| Flight time | 0h 38m |
| Altitude | |
| Route | |
| Aircraft | B23 |
Departure
| Time | 2026-04-20 13:57 |
|---|---|
| Airport | Uetersen-Heist Airfield (EDHE) |
Arrival
| Time | 2026-04-20 14:35 |
|---|---|
| Airport | Hamburg Helmut Schmidt Airport (EDDH) |
| Time | Latitude | Longitude | Altitude | Speed | Heading |
|---|---|---|---|---|---|
| 2026-04-20 13:57 | 53.56776 | 9.67366 | 1547 ft | 99 kts | 93° |
| 2026-04-20 13:57 | 53.56623 | 9.68487 | 1556 ft | 99 kts | 94° |
| 2026-04-20 13:57 | 53.56466 | 9.69621 | 1560 ft | 99 kts | 92° |
| 2026-04-20 13:57 | 53.56322 | 9.70753 | 1567 ft | 98 kts | 91° |
| 2026-04-20 13:58 | 53.56166 | 9.71878 | 1572 ft | 100 kts | 95° |
| 2026-04-20 13:58 | 53.55993 | 9.73007 | 1572 ft | 100 kts | 94° |
| 2026-04-20 13:58 | 53.55827 | 9.74135 | 1572 ft | 99 kts | 94° |
| 2026-04-20 13:58 | 53.55669 | 9.75267 | 1574 ft | 100 kts | 94° |
| 2026-04-20 13:59 | 53.55495 | 9.76402 | 1572 ft | 99 kts | 95° |
| 2026-04-20 13:59 | 53.55338 | 9.77513 | 1574 ft | 97 kts | 93° |
| 2026-04-20 13:59 | 53.55177 | 9.78622 | 1569 ft | 98 kts | 94° |
| 2026-04-20 13:59 | 53.55010 | 9.79734 | 1569 ft | 98 kts | 95° |
| 2026-04-20 14:00 | 53.54844 | 9.80849 | 1572 ft | 98 kts | 93° |
| 2026-04-20 14:00 | 53.54672 | 9.81967 | 1573 ft | 99 kts | 94° |
| 2026-04-20 14:00 | 53.54514 | 9.83091 | 1573 ft | 101 kts | 94° |
| 2026-04-20 14:00 | 53.54354 | 9.84247 | 1572 ft | 101 kts | 93° |
| 2026-04-20 14:01 | 53.54220 | 9.85401 | 1572 ft | 100 kts | 91° |
| 2026-04-20 14:01 | 53.54092 | 9.86558 | 1574 ft | 101 kts | 91° |
| 2026-04-20 14:01 | 53.53956 | 9.87715 | 1574 ft | 100 kts | 90° |
| 2026-04-20 14:01 | 53.53843 | 9.88868 | 1574 ft | 99 kts | 86° |
| 2026-04-20 14:02 | 53.53791 | 9.89652 | 1570 ft | 100 kts | 87° |
| 2026-04-20 14:02 | 53.53760 | 9.90802 | 1538 ft | 98 kts | 81° |
| 2026-04-20 14:02 | 53.53773 | 9.91939 | 1537 ft | 96 kts | 78° |
| 2026-04-20 14:02 | 53.53816 | 9.93064 | 1531 ft | 96 kts | 78° |
| 2026-04-20 14:03 | 53.53855 | 9.94183 | 1535 ft | 95 kts | 79° |
| 2026-04-20 14:03 | 53.53841 | 9.95297 | 1554 ft | 98 kts | 83° |
| 2026-04-20 14:03 | 53.53820 | 9.96448 | 1546 ft | 99 kts | 84° |
| 2026-04-20 14:03 | 53.53671 | 9.97603 | 1537 ft | 100 kts | 93° |
| 2026-04-20 14:04 | 53.53574 | 9.98729 | 1542 ft | 95 kts | 78° |
| 2026-04-20 14:04 | 53.53877 | 9.99623 | 1500 ft | 90 kts | 30° |
| 2026-04-20 14:04 | 53.54495 | 9.99882 | 1476 ft | 92 kts | 14° |
| 2026-04-20 14:04 | 53.55136 | 9.99957 | 1447 ft | 95 kts | 357° |
| 2026-04-20 14:05 | 53.55760 | 9.99490 | 1361 ft | 105 kts | 334° |
| 2026-04-20 14:05 | 53.56337 | 9.98770 | 1388 ft | 102 kts | 331° |
| 2026-04-20 14:05 | 53.56683 | 9.97677 | 1378 ft | 120 kts | 281° |
| 2026-04-20 14:05 | 53.56377 | 9.96331 | 1332 ft | 131 kts | 231° |
| 2026-04-20 14:06 | 53.55711 | 9.95378 | 1382 ft | 127 kts | 214° |
| 2026-04-20 14:06 | 53.54988 | 9.94580 | 1472 ft | 123 kts | 212° |
| 2026-04-20 14:06 | 53.54261 | 9.93834 | 1524 ft | 123 kts | 212° |
| 2026-04-20 14:06 | 53.53511 | 9.93119 | 1544 ft | 124 kts | 195° |
| 2026-04-20 14:07 | 53.52715 | 9.93220 | 1598 ft | 113 kts | 140° |
| 2026-04-20 14:07 | 53.52232 | 9.94172 | 1564 ft | 104 kts | 104° |
| 2026-04-20 14:07 | 53.52035 | 9.95297 | 1575 ft | 98 kts | 92° |
| 2026-04-20 14:07 | 53.51892 | 9.96427 | 1568 ft | 99 kts | 91° |
| 2026-04-20 14:08 | 53.51787 | 9.97565 | 1570 ft | 98 kts | 84° |
| 2026-04-20 14:08 | 53.51826 | 9.98685 | 1544 ft | 95 kts | 68° |
| 2026-04-20 14:08 | 53.52171 | 9.99534 | 1541 ft | 88 kts | 33° |
| 2026-04-20 14:08 | 53.52752 | 9.99852 | 1530 ft | 89 kts | 16° |
| 2026-04-20 14:09 | 53.53368 | 10.00031 | 1529 ft | 90 kts | 11° |
| 2026-04-20 14:09 | 53.53963 | 9.99596 | 1509 ft | 103 kts | 325° |
| 2026-04-20 14:09 | 53.54423 | 9.98647 | 1501 ft | 105 kts | 319° |
| 2026-04-20 14:09 | 53.54824 | 9.97627 | 1536 ft | 106 kts | 307° |
| 2026-04-20 14:10 | 53.55303 | 9.96725 | 1477 ft | 103 kts | 336° |
| 2026-04-20 14:10 | 53.55941 | 9.96451 | 1482 ft | 91 kts | 11° |
| 2026-04-20 14:10 | 53.56491 | 9.96933 | 1433 ft | 92 kts | 44° |
| 2026-04-20 14:10 | 53.56675 | 9.97943 | 1405 ft | 101 kts | 89° |
| 2026-04-20 14:11 | 53.56303 | 9.98980 | 1422 ft | 112 kts | 131° |
| 2026-04-20 14:11 | 53.55580 | 9.99527 | 1433 ft | 119 kts | 159° |
| 2026-04-20 14:11 | 53.54750 | 9.99724 | 1444 ft | 120 kts | 167° |
| 2026-04-20 14:11 | 53.53903 | 9.99592 | 1416 ft | 128 kts | 194° |
| 2026-04-20 14:12 | 53.53182 | 9.98790 | 1359 ft | 129 kts | 238° |
| 2026-04-20 14:12 | 53.52915 | 9.97396 | 1322 ft | 122 kts | 276° |
| 2026-04-20 14:12 | 53.52906 | 9.96027 | 1381 ft | 115 kts | 278° |
| 2026-04-20 14:12 | 53.52922 | 9.94701 | 1414 ft | 110 kts | 290° |
| 2026-04-20 14:13 | 53.53376 | 9.93849 | 1429 ft | 97 kts | 349° |
| 2026-04-20 14:13 | 53.54009 | 9.93910 | 1431 ft | 89 kts | 16° |
| 2026-04-20 14:13 | 53.54611 | 9.94177 | 1437 ft | 89 kts | 17° |
| 2026-04-20 14:13 | 53.55199 | 9.94442 | 1463 ft | 86 kts | 17° |
| 2026-04-20 14:14 | 53.55782 | 9.94704 | 1493 ft | 87 kts | 20° |
| 2026-04-20 14:14 | 53.56318 | 9.95164 | 1493 ft | 88 kts | 37° |
| 2026-04-20 14:14 | 53.56708 | 9.95967 | 1479 ft | 92 kts | 58° |
| 2026-04-20 14:14 | 53.56872 | 9.97052 | 1423 ft | 100 kts | 84° |
| 2026-04-20 14:15 | 53.56605 | 9.98159 | 1406 ft | 108 kts | 118° |
| 2026-04-20 14:15 | 53.56068 | 9.99059 | 1416 ft | 113 kts | 138° |
| 2026-04-20 14:15 | 53.55345 | 9.99643 | 1417 ft | 117 kts | 150° |
| 2026-04-20 14:15 | 53.54577 | 10.00110 | 1409 ft | 118 kts | 151° |
| 2026-04-20 14:16 | 53.53789 | 10.00549 | 1392 ft | 121 kts | 155° |
| 2026-04-20 14:16 | 53.52966 | 10.00697 | 1414 ft | 124 kts | 189° |
| 2026-04-20 14:16 | 53.52261 | 9.99903 | 1453 ft | 124 kts | 240° |
| 2026-04-20 14:16 | 53.52082 | 9.98571 | 1437 ft | 111 kts | 297° |
| 2026-04-20 14:17 | 53.52560 | 9.97771 | 1412 ft | 94 kts | 352° |
| 2026-04-20 14:17 | 53.53187 | 9.97773 | 1415 ft | 89 kts | 7° |
| 2026-04-20 14:17 | 53.53796 | 9.97424 | 1381 ft | 103 kts | 331° |
| 2026-04-20 14:17 | 53.54120 | 9.96289 | 1420 ft | 114 kts | 284° |
| 2026-04-20 14:18 | 53.54145 | 9.94957 | 1470 ft | 114 kts | 282° |
| 2026-04-20 14:18 | 53.54104 | 9.93627 | 1488 ft | 120 kts | 254° |
| 2026-04-20 14:18 | 53.53490 | 9.92759 | 1528 ft | 121 kts | 189° |
| 2026-04-20 14:18 | 53.52657 | 9.92750 | 1524 ft | 120 kts | 171° |
| 2026-04-20 14:19 | 53.51894 | 9.93068 | 1569 ft | 108 kts | 131° |
| 2026-04-20 14:19 | 53.51648 | 9.94162 | 1439 ft | 104 kts | 79° |
| 2026-04-20 14:19 | 53.52053 | 9.94943 | 1361 ft | 99 kts | 8° |
| 2026-04-20 14:19 | 53.52678 | 9.94543 | 1411 ft | 97 kts | 339° |
| 2026-04-20 14:20 | 53.53295 | 9.94008 | 1403 ft | 99 kts | 342° |
| 2026-04-20 14:20 | 53.53909 | 9.94082 | 1395 ft | 88 kts | 28° |
| 2026-04-20 14:20 | 53.54453 | 9.94536 | 1415 ft | 87 kts | 24° |
| 2026-04-20 14:20 | 53.55031 | 9.94805 | 1409 ft | 87 kts | 16° |
| 2026-04-20 14:21 | 53.55626 | 9.95057 | 1425 ft | 88 kts | 24° |
| 2026-04-20 14:21 | 53.56018 | 9.95796 | 1448 ft | 92 kts | 68° |
| 2026-04-20 14:21 | 53.55841 | 9.96881 | 1464 ft | 106 kts | 120° |
| 2026-04-20 14:21 | 53.55302 | 9.97767 | 1464 ft | 110 kts | 128° |
| 2026-04-20 14:22 | 53.54724 | 9.98621 | 1466 ft | 109 kts | 127° |
| 2026-04-20 14:22 | 53.54213 | 9.99542 | 1477 ft | 107 kts | 121° |
| 2026-04-20 14:22 | 53.53743 | 10.00483 | 1520 ft | 107 kts | 127° |
| 2026-04-20 14:22 | 53.53041 | 10.00939 | 1561 ft | 118 kts | 175° |
| 2026-04-20 14:23 | 53.52299 | 10.00302 | 1557 ft | 124 kts | 240° |
| 2026-04-20 14:23 | 53.52145 | 9.98947 | 1506 ft | 120 kts | 281° |
| 2026-04-20 14:23 | 53.52018 | 9.97558 | 1505 ft | 119 kts | 276° |
| 2026-04-20 14:23 | 53.52286 | 9.96422 | 1488 ft | 101 kts | 330° |
| 2026-04-20 14:24 | 53.52908 | 9.96205 | 1393 ft | 92 kts | 17° |
| 2026-04-20 14:24 | 53.53426 | 9.96749 | 1413 ft | 90 kts | 45° |
| 2026-04-20 14:24 | 53.53729 | 9.97677 | 1422 ft | 90 kts | 60° |
| 2026-04-20 14:24 | 53.53977 | 9.98664 | 1415 ft | 93 kts | 61° |
| 2026-04-20 14:25 | 53.54334 | 9.99560 | 1365 ft | 94 kts | 38° |
| 2026-04-20 14:25 | 53.54917 | 9.99977 | 1384 ft | 94 kts | 12° |
| 2026-04-20 14:25 | 53.55567 | 9.99805 | 1387 ft | 100 kts | 337° |
| 2026-04-20 14:25 | 53.55882 | 9.98729 | 1434 ft | 116 kts | 274° |
| 2026-04-20 14:26 | 53.55481 | 9.97517 | 1407 ft | 125 kts | 217° |
| 2026-04-20 14:26 | 53.54765 | 9.96703 | 1422 ft | 126 kts | 213° |
| 2026-04-20 14:26 | 53.54019 | 9.95884 | 1417 ft | 130 kts | 212° |
| 2026-04-20 14:26 | 53.53254 | 9.95078 | 1425 ft | 130 kts | 205° |
| 2026-04-20 14:27 | 53.52388 | 9.94713 | 1420 ft | 124 kts | 170° |
| 2026-04-20 14:27 | 53.51726 | 9.95374 | 1384 ft | 106 kts | 109° |
| 2026-04-20 14:27 | 53.51692 | 9.96503 | 1330 ft | 94 kts | 61° |
| 2026-04-20 14:27 | 53.52122 | 9.97215 | 1354 ft | 87 kts | 33° |
| 2026-04-20 14:28 | 53.52638 | 9.97764 | 1353 ft | 88 kts | 29° |
| 2026-04-20 14:28 | 53.53206 | 9.98138 | 1376 ft | 89 kts | 22° |
| 2026-04-20 14:28 | 53.53781 | 9.98490 | 1422 ft | 86 kts | 20° |
| 2026-04-20 14:28 | 53.54371 | 9.98779 | 1406 ft | 91 kts | 20° |
| 2026-04-20 14:29 | 53.54923 | 9.99256 | 1416 ft | 89 kts | 30° |
| 2026-04-20 14:29 | 53.55513 | 9.99599 | 1394 ft | 94 kts | 9° |
| 2026-04-20 14:29 | 53.56133 | 9.99211 | 1411 ft | 104 kts | 322° |
| 2026-04-20 14:29 | 53.56573 | 9.98225 | 1420 ft | 107 kts | 316° |
| 2026-04-20 14:30 | 53.56885 | 9.97110 | 1417 ft | 119 kts | 268° |
| 2026-04-20 14:30 | 53.56475 | 9.95887 | 1409 ft | 123 kts | 229° |
| 2026-04-20 14:30 | 53.55795 | 9.95090 | 1465 ft | 118 kts | 188° |
| 2026-04-20 14:30 | 53.55013 | 9.95374 | 1429 ft | 114 kts | 137° |
| 2026-04-20 14:31 | 53.54365 | 9.96114 | 1472 ft | 116 kts | 151° |
| 2026-04-20 14:31 | 53.53593 | 9.95825 | 1533 ft | 124 kts | 232° |
| 2026-04-20 14:31 | 53.53538 | 9.94549 | 1455 ft | 114 kts | 313° |
| 2026-04-20 14:31 | 53.54154 | 9.93778 | 1269 ft | 109 kts | 339° |
| 2026-04-20 14:32 | 53.54817 | 9.93229 | 1134 ft | 102 kts | 344° |
| 2026-04-20 14:32 | 53.55452 | 9.92774 | 1126 ft | 97 kts | 346° |
| 2026-04-20 14:32 | 53.56091 | 9.92415 | 1080 ft | 100 kts | 355° |
| 2026-04-20 14:32 | 53.56775 | 9.92295 | 1041 ft | 99 kts | 5° |
| 2026-04-20 14:33 | 53.57453 | 9.92319 | 1040 ft | 95 kts | 9° |
| 2026-04-20 14:33 | 53.58109 | 9.92460 | 1030 ft | 97 kts | 14° |
| 2026-04-20 14:33 | 53.58779 | 9.92641 | 886 ft | 98 kts | 15° |
| 2026-04-20 14:33 | 53.59456 | 9.92896 | 779 ft | 100 kts | 21° |
| 2026-04-20 14:34 | 53.59996 | 9.93283 | 641 ft | 75 kts | 37° |
| 2026-04-20 14:34 | 53.60466 | 9.93814 | 533 ft | 81 kts | 42° |
| 2026-04-20 14:34 | 53.60862 | 9.94478 | 440 ft | 79 kts | 46° |
| 2026-04-20 14:34 | 53.61238 | 9.95181 | 331 ft | 81 kts | 49° |
| 2026-04-20 14:35 | 53.61588 | 9.95895 | 249 ft | 75 kts | 50° |
| 2026-04-20 14:35 | 53.61865 | 9.96454 | 123 ft | 58 kts | 49° |
| 2026-04-20 14:35 | 53.62113 | 9.96949 | 51 ft | 51 kts | 51° |
| 2026-04-20 14:35 | 53.62317 | 9.97365 | 34 ft | 38 kts | 50° |
| 2026-04-20 14:36 | 53.62516 | 9.97768 | 42 ft | 49 kts | 51° |
| 2026-04-20 14:36 | 53.62741 | 9.98247 | 138 ft | 59 kts | 50° |
| 2026-04-20 14:36 | 53.63022 | 9.98795 | 322 ft | 63 kts | 50° |
| 2026-04-20 14:36 | 53.63324 | 9.99390 | 521 ft | 70 kts | 55° |
| 2026-04-20 14:37 | 53.63483 | 10.00201 | 721 ft | 75 kts | 80° |
| 2026-04-20 14:37 | 53.63323 | 10.01100 | 902 ft | 88 kts | 106° |
| 2026-04-20 14:37 | 53.62812 | 10.01756 | 1057 ft | 107 kts | 155° |
| 2026-04-20 14:37 | 53.62053 | 10.01455 | 1113 ft | 124 kts | 220° |
| 2026-04-20 14:38 | 53.61480 | 10.00323 | 1084 ft | 126 kts | 225° |
| 2026-04-20 14:38 | 53.60855 | 9.99332 | 1093 ft | 121 kts | 224° |
| 2026-04-20 14:38 | 53.60279 | 9.98327 | 1097 ft | 120 kts | 225° |
| 2026-04-20 14:38 | 53.59712 | 9.97281 | 1112 ft | 120 kts | 228° |
| 2026-04-20 14:39 | 53.59173 | 9.96226 | 1038 ft | 118 kts | 232° |
| 2026-04-20 14:39 | 53.58759 | 9.95034 | 891 ft | 118 kts | 260° |
| 2026-04-20 14:39 | 53.58844 | 9.93767 | 822 ft | 104 kts | 303° |
| 2026-04-20 14:39 | 53.59218 | 9.92983 | 769 ft | 68 kts | 339° |
| 2026-04-20 14:40 | 53.59629 | 9.92769 | 661 ft | 63 kts | 11° |
| 2026-04-20 14:40 | 53.60031 | 9.92943 | 582 ft | 57 kts | 37° |
| 2026-04-20 14:40 | 53.60332 | 9.93379 | 502 ft | 57 kts | 49° |
| 2026-04-20 14:40 | 53.60587 | 9.93878 | 441 ft | 57 kts | 46° |
| 2026-04-20 14:41 | 53.60849 | 9.94378 | 402 ft | 57 kts | 50° |
| 2026-04-20 14:41 | 53.61109 | 9.94897 | 340 ft | 59 kts | 51° |
| 2026-04-20 14:41 | 53.61377 | 9.95457 | 274 ft | 61 kts | 48° |
| 2026-04-20 14:41 | 53.61636 | 9.95980 | 209 ft | 55 kts | 49° |
| 2026-04-20 14:42 | 53.61881 | 9.96481 | 122 ft | 57 kts | 50° |
| 2026-04-20 14:42 | 53.62126 | 9.96977 | 49 ft | 53 kts | 50° |
| 2026-04-20 14:42 | 53.62318 | 9.97366 | 35 ft | 36 kts | 50° |
| 2026-04-20 14:42 | 53.62484 | 9.97702 | 35 ft | 49 kts | 50° |
| 2026-04-20 14:43 | 53.62710 | 9.98171 | 58 ft | 51 kts | 51° |
| 2026-04-20 14:43 | 53.62943 | 9.98661 | 199 ft | 59 kts | 52° |
| 2026-04-20 14:43 | 53.63206 | 9.99256 | 372 ft | 66 kts | 52° |
| 2026-04-20 14:43 | 53.63457 | 9.99902 | 621 ft | 66 kts | 63° |
| 2026-04-20 14:44 | 53.63420 | 10.00731 | 834 ft | 81 kts | 103° |
| 2026-04-20 14:44 | 53.62974 | 10.01432 | 1030 ft | 105 kts | 147° |
| 2026-04-20 14:44 | 53.62217 | 10.01102 | 1113 ft | 129 kts | 217° |
| 2026-04-20 14:44 | 53.61564 | 9.99992 | 1099 ft | 134 kts | 228° |
| 2026-04-20 14:45 | 53.60959 | 9.98812 | 1111 ft | 130 kts | 229° |
| 2026-04-20 14:45 | 53.60337 | 9.97777 | 1136 ft | 119 kts | 198° |
| 2026-04-20 14:45 | 53.59704 | 9.98000 | 1228 ft | 85 kts | 100° |
| 2026-04-20 14:45 | 53.59981 | 9.98585 | 1205 ft | 88 kts | 360° |
| 2026-04-20 14:46 | 53.60278 | 9.97537 | 1154 ft | 121 kts | 264° |
| 2026-04-20 14:46 | 53.59777 | 9.96477 | 1175 ft | 115 kts | 208° |
| 2026-04-20 14:46 | 53.59174 | 9.95567 | 1083 ft | 123 kts | 249° |
| 2026-04-20 14:46 | 53.59448 | 9.94478 | 976 ft | 104 kts | 352° |
| 2026-04-20 14:47 | 53.60164 | 9.94455 | 746 ft | 100 kts | 12° |
| 2026-04-20 14:47 | 53.60776 | 9.94656 | 517 ft | 84 kts | 29° |
| 2026-04-20 14:47 | 53.61235 | 9.95230 | 316 ft | 79 kts | 45° |
| 2026-04-20 14:48 | 53.61779 | 9.96275 | 124 ft | 55 kts | 49° |
| 2026-04-20 14:48 | 53.62007 | 9.96739 | 50 ft | 48 kts | 50° |
| 2026-04-20 14:48 | 53.62188 | 9.97107 | 35 ft | 31 kts | 50° |
| 2026-04-20 14:48 | 53.62363 | 9.97456 | 34 ft | 57 kts | 50° |
| 2026-04-20 14:49 | 53.62630 | 9.98043 | 203 ft | 61 kts | 54° |
| 2026-04-20 14:49 | 53.62906 | 9.98630 | 358 ft | 68 kts | 50° |
| 2026-04-20 14:49 | 53.63243 | 9.99305 | 493 ft | 79 kts | 51° |
| 2026-04-20 14:49 | 53.63538 | 10.00063 | 676 ft | 77 kts | 61° |
| 2026-04-20 14:50 | 53.63513 | 10.00969 | 916 ft | 86 kts | 109° |
| 2026-04-20 14:50 | 53.62958 | 10.01630 | 981 ft | 113 kts | 149° |
| 2026-04-20 14:50 | 53.62146 | 10.01479 | 1048 ft | 129 kts | 212° |
| 2026-04-20 14:50 | 53.61567 | 10.00287 | 985 ft | 133 kts | 234° |
| 2026-04-20 14:51 | 53.61008 | 9.99093 | 1077 ft | 129 kts | 232° |
| 2026-04-20 14:51 | 53.60445 | 9.97937 | 1117 ft | 125 kts | 218° |
| 2026-04-20 14:51 | 53.59696 | 9.97765 | 1188 ft | 102 kts | 136° |
| 2026-04-20 14:51 | 53.59473 | 9.98633 | 1184 ft | 79 kts | 67° |
| 2026-04-20 14:52 | 53.59915 | 9.99089 | 1174 ft | 89 kts | 2° |
| 2026-04-20 14:52 | 53.60350 | 9.98215 | 1162 ft | 119 kts | 284° |
| 2026-04-20 14:52 | 53.59984 | 9.96972 | 1186 ft | 124 kts | 206° |
| 2026-04-20 14:52 | 53.59250 | 9.97050 | 1172 ft | 99 kts | 123° |
| 2026-04-20 14:53 | 53.59196 | 9.97944 | 1148 ft | 80 kts | 53° |
| 2026-04-20 14:53 | 53.59598 | 9.98614 | 1073 ft | 86 kts | 30° |
| 2026-04-20 14:53 | 53.60175 | 9.98326 | 1059 ft | 109 kts | 315° |
| 2026-04-20 14:53 | 53.60078 | 9.97034 | 1086 ft | 129 kts | 221° |
| 2026-04-20 14:54 | 53.59393 | 9.96077 | 967 ft | 128 kts | 233° |
| 2026-04-20 14:54 | 53.59213 | 9.94774 | 870 ft | 108 kts | 287° |
| 2026-04-20 14:54 | 53.59580 | 9.93927 | 777 ft | 82 kts | 353° |
| 2026-04-20 14:54 | 53.60123 | 9.93787 | 603 ft | 77 kts | 16° |
| 2026-04-20 14:55 | 53.60604 | 9.94107 | 475 ft | 62 kts | 37° |
| 2026-04-20 14:55 | 53.60876 | 9.94489 | 345 ft | 49 kts | 46° |
| 2026-04-20 14:55 | 53.61115 | 9.94921 | 275 ft | 51 kts | 47° |
| 2026-04-20 14:55 | 53.61346 | 9.95396 | 212 ft | 53 kts | 55° |
| 2026-04-20 14:56 | 53.61586 | 9.95861 | 169 ft | 55 kts | 49° |
| 2026-04-20 14:56 | 53.61819 | 9.96345 | 110 ft | 52 kts | 51° |
| 2026-04-20 14:56 | 53.62042 | 9.96804 | 65 ft | 47 kts | 50° |
| 2026-04-20 14:56 | 53.62218 | 9.97163 | 34 ft | 32 kts | 49° |
| 2026-04-20 14:57 | 53.62441 | 9.97620 | 46 ft | 65 kts | 52° |
| 2026-04-20 14:57 | 53.62703 | 9.98213 | 242 ft | 61 kts | 52° |
| 2026-04-20 14:57 | 53.63008 | 9.98752 | 412 ft | 71 kts | 29° |
| 2026-04-20 14:57 | 53.63529 | 9.98621 | 579 ft | 91 kts | 339° |
| 2026-04-20 14:58 | 53.64016 | 9.97916 | 749 ft | 94 kts | 329° |
| 2026-04-20 14:58 | 53.64505 | 9.97174 | 946 ft | 95 kts | 328° |
| 2026-04-20 14:58 | 53.64972 | 9.96407 | 1179 ft | 90 kts | 326° |
| 2026-04-20 14:58 | 53.65278 | 9.95413 | 1367 ft | 103 kts | 300° |
| 2026-04-20 14:59 | 53.65496 | 9.94196 | 1429 ft | 113 kts | 298° |
| 2026-04-20 14:59 | 53.65630 | 9.92855 | 1539 ft | 118 kts | 291° |
| 2026-04-20 14:59 | 53.65751 | 9.91451 | 1600 ft | 126 kts | 289° |
| 2026-04-20 14:59 | 53.65911 | 9.89983 | 1598 ft | 129 kts | 290° |
| 2026-04-20 15:00 | 53.66071 | 9.88498 | 1602 ft | 129 kts | 290° |
| 2026-04-20 15:00 | 53.66226 | 9.87007 | 1603 ft | 129 kts | 290° |
| 2026-04-20 15:00 | 53.66368 | 9.85516 | 1600 ft | 127 kts | 290° |
| 2026-04-20 15:00 | 53.66578 | 9.84098 | 1600 ft | 124 kts | 295° |
| 2026-04-20 15:01 | 53.66804 | 9.82709 | 1597 ft | 122 kts | 296° |
| 2026-04-20 15:01 | 53.67018 | 9.81350 | 1597 ft | 121 kts | 295° |
| 2026-04-20 15:01 | 53.67232 | 9.79970 | 1599 ft | 123 kts | 295° |
| 2026-04-20 15:01 | 53.67456 | 9.78565 | 1596 ft | 124 kts | 295° |
| 2026-04-20 15:02 | 53.67686 | 9.77163 | 1596 ft | 123 kts | 296° |
| 2026-04-20 15:02 | 53.67903 | 9.75765 | 1592 ft | 123 kts | 295° |
| 2026-04-20 15:02 | 53.68107 | 9.74365 | 1587 ft | 123 kts | 295° |
| 2026-04-20 15:02 | 53.68305 | 9.72968 | 1564 ft | 123 kts | 293° |
| 2026-04-20 15:03 | 53.68284 | 9.71463 | 1472 ft | 132 kts | 262° |
| 2026-04-20 15:03 | 53.67914 | 9.70057 | 1321 ft | 134 kts | 238° |
| 2026-04-20 15:03 | 53.67412 | 9.68762 | 1230 ft | 128 kts | 240° |
| 2026-04-20 15:03 | 53.66931 | 9.67582 | 1134 ft | 119 kts | 214° |
| 2026-04-20 15:04 | 53.66157 | 9.67244 | 1024 ft | 114 kts | 177° |
| 2026-04-20 15:04 | 53.65488 | 9.67042 | 764 ft | 90 kts | 171° |
| 2026-04-20 15:04 | 53.64963 | 9.67336 | 540 ft | 73 kts | 122° |
| 2026-04-20 15:04 | 53.64752 | 9.67926 | 364 ft | 53 kts | 82° |
| 2026-04-20 15:05 | 53.64728 | 9.68582 | 241 ft | 58 kts | 78° |
| 2026-04-20 15:05 | 53.64696 | 9.69269 | 116 ft | 61 kts | 77° |
| 2026-04-20 15:05 | 53.64664 | 9.69934 | 24 ft | 43 kts | 76° |
| 2026-04-20 15:05 | 53.64674 | 9.70200 | 22 ft | 10 kts | 111° |
| 2026-04-20 15:06 | 53.64647 | 9.70285 | 23 ft | 14 kts | 129° |
| 2026-04-20 15:06 | 53.64578 | 9.70356 | 24 ft | 11 kts | 155° |
| 2026-04-20 15:06 | 53.64504 | 9.70380 | 24 ft | 10 kts | 185° |
| 2026-04-20 15:06 | 53.64481 | 9.70425 | 24 ft | 7 kts | 47° |
| 2026-04-20 15:07 | 53.64504 | 9.70437 | 24 ft | 1 kts | 327° |
| 2026-04-20 15:07 | 53.64507 | 9.70429 | 24 ft | 0 kts | 277° |